sensor_id;sensor_type;location;lat;lon;timestamp;P1;durP1;ratioP1;P2;durP2;ratioP2
3201;SDS011;34843;48.744;8.958;2022-09-28T00:00:51;1.50;;;1.30;;
3201;SDS011;34843;48.744;8.958;2022-09-28T00:03:18;1.53;;;1.30;;
3201;SDS011;34843;48.744;8.958;2022-09-28T00:05:44;1.60;;;1.47;;
3201;SDS011;34843;48.744;8.958;2022-09-28T00:08:09;4.10;;;1.43;;
3201;SDS011;34843;48.744;8.958;2022-09-28T00:10:35;3.80;;;1.30;;
3201;SDS011;34843;48.744;8.958;2022-09-28T00:13:00;1.23;;;1.13;;
3201;SDS011;34843;48.744;8.958;2022-09-28T00:15:26;3.53;;;1.33;;
3201;SDS011;34843;48.744;8.958;2022-09-28T00:17:52;3.20;;;1.77;;
3201;SDS011;34843;48.744;8.958;2022-09-28T00:20:17;7.10;;;1.90;;
3201;SDS011;34843;48.744;8.958;2022-09-28T00:22:43;1.27;;;1.20;;
3201;SDS011;34843;48.744;8.958;2022-09-28T00:25:09;2.73;;;1.80;;
3201;SDS011;34843;48.744;8.958;2022-09-28T00:27:34;6.07;;;2.00;;
3201;SDS011;34843;48.744;8.958;2022-09-28T00:30:00;2.70;;;1.73;;
3201;SDS011;34843;48.744;8.958;2022-09-28T00:32:25;1.67;;;1.57;;
3201;SDS011;34843;48.744;8.958;2022-09-28T00:34:51;1.93;;;1.60;;
3201;SDS011;34843;48.744;8.958;2022-09-28T00:37:18;2.10;;;1.43;;
3201;SDS011;34843;48.744;8.958;2022-09-28T00:39:44;2.30;;;1.83;;
3201;SDS011;34843;48.744;8.958;2022-09-28T00:42:18;1.57;;;1.37;;
3201;SDS011;34843;48.744;8.958;2022-09-28T00:47:38;1.60;;;1.50;;
3201;SDS011;34843;48.744;8.958;2022-09-28T00:50:34;2.80;;;1.27;;
3201;SDS011;34843;48.744;8.958;2022-09-28T00:53:10;2.90;;;1.30;;
3201;SDS011;34843;48.744;8.958;2022-09-28T00:55:47;3.57;;;1.50;;
3201;SDS011;34843;48.744;8.958;2022-09-28T01:00:57;1.40;;;1.30;;
3201;SDS011;34843;48.744;8.958;2022-09-28T01:03:24;3.07;;;1.60;;
3201;SDS011;34843;48.744;8.958;2022-09-28T01:05:50;4.93;;;1.50;;
3201;SDS011;34843;48.744;8.958;2022-09-28T01:08:17;1.23;;;1.13;;
3201;SDS011;34843;48.744;8.958;2022-09-28T01:10:45;3.27;;;1.30;;
3201;SDS011;34843;48.744;8.958;2022-09-28T01:13:11;1.23;;;1.13;;
3201;SDS011;34843;48.744;8.958;2022-09-28T01:15:41;1.83;;;1.00;;
3201;SDS011;34843;48.744;8.958;2022-09-28T01:21:33;1.40;;;1.30;;
3201;SDS011;34843;48.744;8.958;2022-09-28T01:27:05;1.47;;;1.17;;
3201;SDS011;34843;48.744;8.958;2022-09-28T01:34:43;3.37;;;1.30;;
3201;SDS011;34843;48.744;8.958;2022-09-28T01:37:17;5.70;;;2.13;;
3201;SDS011;34843;48.744;8.958;2022-09-28T01:39:45;2.73;;;2.17;;
3201;SDS011;34843;48.744;8.958;2022-09-28T01:42:23;3.63;;;1.80;;
3201;SDS011;34843;48.744;8.958;2022-09-28T01:44:54;2.03;;;1.70;;
3201;SDS011;34843;48.744;8.958;2022-09-28T01:47:26;3.63;;;1.80;;
3201;SDS011;34843;48.744;8.958;2022-09-28T01:49:59;1.57;;;1.30;;
3201;SDS011;34843;48.744;8.958;2022-09-28T01:52:35;3.00;;;1.40;;
3201;SDS011;34843;48.744;8.958;2022-09-28T01:55:12;3.10;;;1.70;;
3201;SDS011;34843;48.744;8.958;2022-09-28T01:57:49;1.70;;;1.33;;
3201;SDS011;34843;48.744;8.958;2022-09-28T02:00:22;2.40;;;2.20;;
3201;SDS011;34843;48.744;8.958;2022-09-28T02:03:00;1.60;;;1.50;;
3201;SDS011;34843;48.744;8.958;2022-09-28T02:05:32;3.37;;;1.70;;
3201;SDS011;34843;48.744;8.958;2022-09-28T02:08:05;2.40;;;2.20;;
3201;SDS011;34843;48.744;8.958;2022-09-28T02:10:41;3.83;;;2.13;;
3201;SDS011;34843;48.744;8.958;2022-09-28T02:13:17;2.20;;;1.33;;
3201;SDS011;34843;48.744;8.958;2022-09-28T02:15:49;2.00;;;1.90;;
3201;SDS011;34843;48.744;8.958;2022-09-28T02:18:18;2.83;;;1.47;;
3201;SDS011;34843;48.744;8.958;2022-09-28T02:20:45;4.00;;;1.73;;
3201;SDS011;34843;48.744;8.958;2022-09-28T02:23:18;5.50;;;1.80;;
3201;SDS011;34843;48.744;8.958;2022-09-28T02:25:51;7.70;;;2.03;;
3201;SDS011;34843;48.744;8.958;2022-09-28T02:28:25;3.90;;;1.97;;
3201;SDS011;34843;48.744;8.958;2022-09-28T02:30:51;2.80;;;2.17;;
3201;SDS011;34843;48.744;8.958;2022-09-28T02:33:20;2.30;;;2.10;;
3201;SDS011;34843;48.744;8.958;2022-09-28T02:35:49;3.37;;;1.90;;
3201;SDS011;34843;48.744;8.958;2022-09-28T02:38:15;3.67;;;1.90;;
3201;SDS011;34843;48.744;8.958;2022-09-28T02:40:42;7.00;;;1.90;;
3201;SDS011;34843;48.744;8.958;2022-09-28T02:43:23;4.13;;;1.70;;
3201;SDS011;34843;48.744;8.958;2022-09-28T02:51:24;8.30;;;1.67;;
3201;SDS011;34843;48.744;8.958;2022-09-28T02:54:04;2.40;;;1.13;;
3201;SDS011;34843;48.744;8.958;2022-09-28T03:00:03;6.07;;;1.70;;
3201;SDS011;34843;48.744;8.958;2022-09-28T03:02:40;3.47;;;1.67;;
3201;SDS011;34843;48.744;8.958;2022-09-28T03:05:21;1.97;;;1.30;;
3201;SDS011;34843;48.744;8.958;2022-09-28T03:08:01;4.03;;;1.00;;
3201;SDS011;34843;48.744;8.958;2022-09-28T03:10:47;5.33;;;1.63;;
3201;SDS011;34843;48.744;8.958;2022-09-28T03:13:17;4.50;;;2.40;;
3201;SDS011;34843;48.744;8.958;2022-09-28T03:15:43;9.00;;;1.77;;
3201;SDS011;34843;48.744;8.958;2022-09-28T03:18:09;6.63;;;2.13;;
3201;SDS011;34843;48.744;8.958;2022-09-28T03:20:35;2.80;;;1.50;;
3201;SDS011;34843;48.744;8.958;2022-09-28T03:23:01;1.43;;;1.20;;
3201;SDS011;34843;48.744;8.958;2022-09-28T03:25:27;7.50;;;1.60;;
3201;SDS011;34843;48.744;8.958;2022-09-28T03:27:52;3.87;;;1.37;;
3201;SDS011;34843;48.744;8.958;2022-09-28T03:30:18;13.97;;;1.57;;
3201;SDS011;34843;48.744;8.958;2022-09-28T03:32:43;2.20;;;1.33;;
3201;SDS011;34843;48.744;8.958;2022-09-28T03:35:09;2.07;;;1.43;;
3201;SDS011;34843;48.744;8.958;2022-09-28T03:37:35;8.27;;;2.00;;
3201;SDS011;34843;48.744;8.958;2022-09-28T03:40:01;4.27;;;1.43;;
3201;SDS011;34843;48.744;8.958;2022-09-28T03:42:27;3.20;;;1.27;;
3201;SDS011;34843;48.744;8.958;2022-09-28T03:44:52;4.60;;;1.67;;
3201;SDS011;34843;48.744;8.958;2022-09-28T03:47:18;2.60;;;1.57;;
3201;SDS011;34843;48.744;8.958;2022-09-28T03:49:44;3.13;;;1.13;;
3201;SDS011;34843;48.744;8.958;2022-09-28T03:52:10;2.70;;;1.13;;
3201;SDS011;34843;48.744;8.958;2022-09-28T03:54:36;1.27;;;0.80;;
3201;SDS011;34843;48.744;8.958;2022-09-28T03:57:02;0.70;;;0.60;;
3201;SDS011;34843;48.744;8.958;2022-09-28T03:59:28;1.87;;;1.57;;
3201;SDS011;34843;48.744;8.958;2022-09-28T04:01:54;2.63;;;1.20;;
3201;SDS011;34843;48.744;8.958;2022-09-28T04:04:20;1.27;;;0.93;;
3201;SDS011;34843;48.744;8.958;2022-09-28T04:06:45;1.97;;;1.00;;
3201;SDS011;34843;48.744;8.958;2022-09-28T04:09:11;9.23;;;3.33;;
3201;SDS011;34843;48.744;8.958;2022-09-28T04:11:36;6.50;;;2.00;;
3201;SDS011;34843;48.744;8.958;2022-09-28T04:14:02;2.00;;;1.00;;
3201;SDS011;34843;48.744;8.958;2022-09-28T04:16:28;2.13;;;1.00;;
3201;SDS011;34843;48.744;8.958;2022-09-28T04:18:53;0.90;;;0.90;;
3201;SDS011;34843;48.744;8.958;2022-09-28T04:21:19;2.60;;;0.80;;
3201;SDS011;34843;48.744;8.958;2022-09-28T04:23:45;3.23;;;1.20;;
3201;SDS011;34843;48.744;8.958;2022-09-28T04:26:18;1.93;;;1.57;;
3201;SDS011;34843;48.744;8.958;2022-09-28T04:28:45;2.07;;;1.50;;
3201;SDS011;34843;48.744;8.958;2022-09-28T04:31:31;4.23;;;1.37;;
3201;SDS011;34843;48.744;8.958;2022-09-28T04:34:02;2.97;;;1.27;;
3201;SDS011;34843;48.744;8.958;2022-09-28T04:36:27;1.73;;;1.63;;
3201;SDS011;34843;48.744;8.958;2022-09-28T04:38:53;2.93;;;1.03;;
3201;SDS011;34843;48.744;8.958;2022-09-28T04:41:19;4.10;;;1.30;;
3201;SDS011;34843;48.744;8.958;2022-09-28T04:43:46;4.37;;;1.10;;
3201;SDS011;34843;48.744;8.958;2022-09-28T04:46:12;1.20;;;1.10;;
3201;SDS011;34843;48.744;8.958;2022-09-28T04:48:38;1.90;;;1.37;;
3201;SDS011;34843;48.744;8.958;2022-09-28T04:51:04;4.43;;;1.20;;
3201;SDS011;34843;48.744;8.958;2022-09-28T04:53:29;1.07;;;0.97;;
3201;SDS011;34843;48.744;8.958;2022-09-28T04:55:56;1.87;;;1.40;;
3201;SDS011;34843;48.744;8.958;2022-09-28T04:58:23;2.20;;;1.20;;
3201;SDS011;34843;48.744;8.958;2022-09-28T05:00:49;1.77;;;1.33;;
3201;SDS011;34843;48.744;8.958;2022-09-28T05:03:15;2.43;;;0.97;;
3201;SDS011;34843;48.744;8.958;2022-09-28T05:05:44;2.60;;;1.50;;
3201;SDS011;34843;48.744;8.958;2022-09-28T05:08:10;1.37;;;1.00;;
3201;SDS011;34843;48.744;8.958;2022-09-28T05:10:36;3.57;;;1.90;;
3201;SDS011;34843;48.744;8.958;2022-09-28T05:13:04;3.10;;;1.97;;
3201;SDS011;34843;48.744;8.958;2022-09-28T05:15:30;2.10;;;1.53;;
3201;SDS011;34843;48.744;8.958;2022-09-28T05:17:57;3.87;;;1.40;;
3201;SDS011;34843;48.744;8.958;2022-09-28T05:20:23;7.90;;;2.00;;
3201;SDS011;34843;48.744;8.958;2022-09-28T05:22:48;4.30;;;1.70;;
3201;SDS011;34843;48.744;8.958;2022-09-28T05:25:14;1.57;;;1.40;;
3201;SDS011;34843;48.744;8.958;2022-09-28T05:27:39;3.00;;;1.50;;
3201;SDS011;34843;48.744;8.958;2022-09-28T05:30:05;2.83;;;1.40;;
3201;SDS011;34843;48.744;8.958;2022-09-28T05:32:31;8.03;;;1.37;;
3201;SDS011;34843;48.744;8.958;2022-09-28T05:34:57;3.13;;;1.37;;
3201;SDS011;34843;48.744;8.958;2022-09-28T05:37:25;9.50;;;1.63;;
3201;SDS011;34843;48.744;8.958;2022-09-28T05:39:50;5.37;;;2.50;;
3201;SDS011;34843;48.744;8.958;2022-09-28T05:42:16;1.83;;;1.60;;
3201;SDS011;34843;48.744;8.958;2022-09-28T05:44:41;1.40;;;1.30;;
3201;SDS011;34843;48.744;8.958;2022-09-28T05:47:07;6.33;;;3.00;;
3201;SDS011;34843;48.744;8.958;2022-09-28T05:49:32;6.60;;;1.80;;
3201;SDS011;34843;48.744;8.958;2022-09-28T05:51:58;3.20;;;1.80;;
3201;SDS011;34843;48.744;8.958;2022-09-28T05:54:23;2.80;;;1.93;;
3201;SDS011;34843;48.744;8.958;2022-09-28T05:56:49;6.40;;;2.90;;
3201;SDS011;34843;48.744;8.958;2022-09-28T05:59:14;5.60;;;1.90;;
3201;SDS011;34843;48.744;8.958;2022-09-28T06:01:40;5.23;;;2.17;;
3201;SDS011;34843;48.744;8.958;2022-09-28T06:04:06;4.33;;;2.33;;
3201;SDS011;34843;48.744;8.958;2022-09-28T06:06:33;4.47;;;2.03;;
3201;SDS011;34843;48.744;8.958;2022-09-28T06:08:59;2.40;;;1.80;;
3201;SDS011;34843;48.744;8.958;2022-09-28T06:11:25;4.13;;;2.23;;
3201;SDS011;34843;48.744;8.958;2022-09-28T06:13:54;7.10;;;2.53;;
3201;SDS011;34843;48.744;8.958;2022-09-28T06:16:19;4.63;;;1.83;;
3201;SDS011;34843;48.744;8.958;2022-09-28T06:18:45;6.03;;;2.27;;
3201;SDS011;34843;48.744;8.958;2022-09-28T06:21:11;3.20;;;2.53;;
3201;SDS011;34843;48.744;8.958;2022-09-28T06:23:37;8.83;;;2.63;;
3201;SDS011;34843;48.744;8.958;2022-09-28T06:26:02;3.10;;;2.53;;
3201;SDS011;34843;48.744;8.958;2022-09-28T06:28:28;2.30;;;2.10;;
3201;SDS011;34843;48.744;8.958;2022-09-28T06:30:53;6.57;;;2.90;;
3201;SDS011;34843;48.744;8.958;2022-09-28T06:33:19;3.70;;;2.57;;
3201;SDS011;34843;48.744;8.958;2022-09-28T06:35:45;3.20;;;2.40;;
3201;SDS011;34843;48.744;8.958;2022-09-28T06:38:11;3.77;;;2.30;;
3201;SDS011;34843;48.744;8.958;2022-09-28T06:40:37;5.27;;;3.63;;
3201;SDS011;34843;48.744;8.958;2022-09-28T06:43:04;4.60;;;2.50;;
3201;SDS011;34843;48.744;8.958;2022-09-28T06:45:34;5.30;;;2.90;;
3201;SDS011;34843;48.744;8.958;2022-09-28T06:48:00;4.60;;;2.30;;
3201;SDS011;34843;48.744;8.958;2022-09-28T06:50:27;5.37;;;4.53;;
3201;SDS011;34843;48.744;8.958;2022-09-28T06:53:04;6.60;;;2.77;;
3201;SDS011;34843;48.744;8.958;2022-09-28T06:55:31;8.17;;;3.20;;
3201;SDS011;34843;48.744;8.958;2022-09-28T06:58:01;5.20;;;2.70;;
3201;SDS011;34843;48.744;8.958;2022-09-28T07:00:29;7.40;;;2.40;;
3201;SDS011;34843;48.744;8.958;2022-09-28T07:02:57;4.30;;;2.73;;
3201;SDS011;34843;48.744;8.958;2022-09-28T07:05:25;11.13;;;2.60;;
3201;SDS011;34843;48.744;8.958;2022-09-28T07:07:52;3.00;;;2.47;;
3201;SDS011;34843;48.744;8.958;2022-09-28T07:10:19;5.50;;;2.70;;
3201;SDS011;34843;48.744;8.958;2022-09-28T07:12:47;5.70;;;2.60;;
3201;SDS011;34843;48.744;8.958;2022-09-28T07:15:13;5.23;;;2.97;;
3201;SDS011;34843;48.744;8.958;2022-09-28T07:17:38;19.53;;;4.57;;
3201;SDS011;34843;48.744;8.958;2022-09-28T07:20:04;7.60;;;2.77;;
3201;SDS011;34843;48.744;8.958;2022-09-28T07:22:30;6.70;;;2.93;;
3201;SDS011;34843;48.744;8.958;2022-09-28T07:24:55;3.00;;;2.57;;
3201;SDS011;34843;48.744;8.958;2022-09-28T07:27:21;4.10;;;2.70;;
3201;SDS011;34843;48.744;8.958;2022-09-28T07:29:47;5.47;;;2.53;;
3201;SDS011;34843;48.744;8.958;2022-09-28T07:32:13;3.47;;;2.50;;
3201;SDS011;34843;48.744;8.958;2022-09-28T07:34:38;3.23;;;2.50;;
3201;SDS011;34843;48.744;8.958;2022-09-28T07:37:07;2.60;;;2.03;;
3201;SDS011;34843;48.744;8.958;2022-09-28T07:39:34;5.07;;;2.20;;
3201;SDS011;34843;48.744;8.958;2022-09-28T07:42:20;2.20;;;2.00;;
3201;SDS011;34843;48.744;8.958;2022-09-28T07:44:45;5.97;;;2.57;;
3201;SDS011;34843;48.744;8.958;2022-09-28T07:47:11;4.80;;;1.73;;
3201;SDS011;34843;48.744;8.958;2022-09-28T07:49:37;2.40;;;2.20;;
3201;SDS011;34843;48.744;8.958;2022-09-28T07:52:03;3.77;;;1.83;;
3201;SDS011;34843;48.744;8.958;2022-09-28T07:54:28;2.80;;;1.83;;
3201;SDS011;34843;48.744;8.958;2022-09-28T07:56:55;2.00;;;1.90;;
3201;SDS011;34843;48.744;8.958;2022-09-28T07:59:20;2.47;;;2.27;;
3201;SDS011;34843;48.744;8.958;2022-09-28T08:01:46;2.53;;;1.63;;
3201;SDS011;34843;48.744;8.958;2022-09-28T08:04:13;1.87;;;1.70;;
3201;SDS011;34843;48.744;8.958;2022-09-28T08:06:39;2.97;;;1.73;;
3201;SDS011;34843;48.744;8.958;2022-09-28T08:09:04;2.37;;;2.00;;
3201;SDS011;34843;48.744;8.958;2022-09-28T08:11:30;4.60;;;1.53;;
3201;SDS011;34843;48.744;8.958;2022-09-28T08:13:56;1.67;;;1.30;;
3201;SDS011;34843;48.744;8.958;2022-09-28T08:16:22;2.70;;;2.20;;
3201;SDS011;34843;48.744;8.958;2022-09-28T08:18:47;4.40;;;1.87;;
3201;SDS011;34843;48.744;8.958;2022-09-28T08:21:13;2.50;;;1.60;;
3201;SDS011;34843;48.744;8.958;2022-09-28T08:23:58;2.53;;;1.60;;
3201;SDS011;34843;48.744;8.958;2022-09-28T08:26:23;3.97;;;1.70;;
3201;SDS011;34843;48.744;8.958;2022-09-28T08:28:49;2.70;;;1.73;;
3201;SDS011;34843;48.744;8.958;2022-09-28T08:31:15;3.53;;;1.50;;
3201;SDS011;34843;48.744;8.958;2022-09-28T08:33:40;3.30;;;2.20;;
3201;SDS011;34843;48.744;8.958;2022-09-28T08:36:06;2.30;;;2.00;;
3201;SDS011;34843;48.744;8.958;2022-09-28T08:38:33;3.90;;;1.90;;
3201;SDS011;34843;48.744;8.958;2022-09-28T08:41:11;2.40;;;2.20;;
3201;SDS011;34843;48.744;8.958;2022-09-28T08:46:32;3.40;;;1.90;;
3201;SDS011;34843;48.744;8.958;2022-09-28T08:49:21;3.57;;;2.07;;
3201;SDS011;34843;48.744;8.958;2022-09-28T08:51:59;7.90;;;2.07;;
3201;SDS011;34843;48.744;8.958;2022-09-28T08:54:29;2.70;;;1.73;;
3201;SDS011;34843;48.744;8.958;2022-09-28T08:57:20;4.63;;;2.17;;
3201;SDS011;34843;48.744;8.958;2022-09-28T08:59:57;3.40;;;2.33;;
3201;SDS011;34843;48.744;8.958;2022-09-28T09:02:32;6.70;;;2.60;;
3201;SDS011;34843;48.744;8.958;2022-09-28T09:05:05;2.40;;;2.10;;
3201;SDS011;34843;48.744;8.958;2022-09-28T09:12:58;5.13;;;3.03;;
3201;SDS011;34843;48.744;8.958;2022-09-28T09:15:43;5.00;;;3.10;;
3201;SDS011;34843;48.744;8.958;2022-09-28T09:18:45;5.07;;;4.03;;
3201;SDS011;34843;48.744;8.958;2022-09-28T09:27:28;4.50;;;3.50;;
3201;SDS011;34843;48.744;8.958;2022-09-28T09:30:13;5.27;;;2.50;;
3201;SDS011;34843;48.744;8.958;2022-09-28T09:46:33;3.23;;;2.70;;
3201;SDS011;34843;48.744;8.958;2022-09-28T09:49:29;4.10;;;2.73;;
3201;SDS011;34843;48.744;8.958;2022-09-28T09:54:39;4.07;;;2.17;;
3201;SDS011;34843;48.744;8.958;2022-09-28T09:59:41;2.83;;;2.40;;
3201;SDS011;34843;48.744;8.958;2022-09-28T10:02:42;2.80;;;1.80;;
3201;SDS011;34843;48.744;8.958;2022-09-28T10:05:13;3.63;;;2.30;;
3201;SDS011;34843;48.744;8.958;2022-09-28T10:10:26;4.60;;;2.10;;
3201;SDS011;34843;48.744;8.958;2022-09-28T10:12:54;2.70;;;1.77;;
3201;SDS011;34843;48.744;8.958;2022-09-28T10:15:24;5.40;;;3.20;;
3201;SDS011;34843;48.744;8.958;2022-09-28T10:17:54;6.40;;;3.50;;
3201;SDS011;34843;48.744;8.958;2022-09-28T10:20:22;1.50;;;1.30;;
3201;SDS011;34843;48.744;8.958;2022-09-28T10:22:52;10.70;;;2.17;;
3201;SDS011;34843;48.744;8.958;2022-09-28T10:25:20;3.70;;;1.60;;
3201;SDS011;34843;48.744;8.958;2022-09-28T10:27:46;5.23;;;2.10;;
3201;SDS011;34843;48.744;8.958;2022-09-28T10:30:14;2.13;;;1.93;;
3201;SDS011;34843;48.744;8.958;2022-09-28T10:32:46;6.57;;;1.90;;
3201;SDS011;34843;48.744;8.958;2022-09-28T10:37:45;8.33;;;2.60;;
3201;SDS011;34843;48.744;8.958;2022-09-28T10:43:16;5.83;;;2.17;;
3201;SDS011;34843;48.744;8.958;2022-09-28T10:45:42;5.47;;;2.20;;
3201;SDS011;34843;48.744;8.958;2022-09-28T10:48:15;2.83;;;1.50;;
3201;SDS011;34843;48.744;8.958;2022-09-28T10:51:01;3.27;;;1.70;;
3201;SDS011;34843;48.744;8.958;2022-09-28T10:53:29;1.37;;;1.27;;
3201;SDS011;34843;48.744;8.958;2022-09-28T10:55:56;3.00;;;1.43;;
3201;SDS011;34843;48.744;8.958;2022-09-28T10:58:24;2.70;;;1.37;;
3201;SDS011;34843;48.744;8.958;2022-09-28T11:00:51;2.47;;;1.40;;
3201;SDS011;34843;48.744;8.958;2022-09-28T11:03:22;3.53;;;2.07;;
3201;SDS011;34843;48.744;8.958;2022-09-28T11:05:53;5.33;;;1.77;;
3201;SDS011;34843;48.744;8.958;2022-09-28T11:08:24;1.33;;;1.23;;
3201;SDS011;34843;48.744;8.958;2022-09-28T11:11:09;2.80;;;1.47;;
3201;SDS011;34843;48.744;8.958;2022-09-28T11:13:49;3.03;;;1.57;;
3201;SDS011;34843;48.744;8.958;2022-09-28T11:16:17;2.00;;;1.27;;
3201;SDS011;34843;48.744;8.958;2022-09-28T11:18:46;2.80;;;1.40;;
3201;SDS011;34843;48.744;8.958;2022-09-28T11:21:13;6.93;;;1.43;;
3201;SDS011;34843;48.744;8.958;2022-09-28T11:23:41;2.47;;;1.20;;
3201;SDS011;34843;48.744;8.958;2022-09-28T11:26:25;3.10;;;1.30;;
3201;SDS011;34843;48.744;8.958;2022-09-28T11:28:51;4.00;;;1.87;;
3201;SDS011;34843;48.744;8.958;2022-09-28T11:31:22;2.67;;;1.23;;
3201;SDS011;34843;48.744;8.958;2022-09-28T11:33:50;3.00;;;1.00;;
3201;SDS011;34843;48.744;8.958;2022-09-28T11:36:50;1.53;;;1.20;;
3201;SDS011;34843;48.744;8.958;2022-09-28T11:42:27;2.83;;;1.10;;
3201;SDS011;34843;48.744;8.958;2022-09-28T11:45:03;2.40;;;1.53;;
3201;SDS011;34843;48.744;8.958;2022-09-28T11:48:20;1.83;;;1.40;;
3201;SDS011;34843;48.744;8.958;2022-09-28T11:50:51;2.60;;;1.37;;
3201;SDS011;34843;48.744;8.958;2022-09-28T11:55:53;3.00;;;1.40;;
3201;SDS011;34843;48.744;8.958;2022-09-28T11:58:31;2.50;;;1.30;;
3201;SDS011;34843;48.744;8.958;2022-09-28T12:01:02;2.27;;;1.50;;
3201;SDS011;34843;48.744;8.958;2022-09-28T12:03:38;1.73;;;1.40;;
3201;SDS011;34843;48.744;8.958;2022-09-28T12:06:16;2.83;;;1.57;;
3201;SDS011;34843;48.744;8.958;2022-09-28T12:08:47;4.47;;;1.43;;
3201;SDS011;34843;48.744;8.958;2022-09-28T12:11:20;3.97;;;1.80;;
3201;SDS011;34843;48.744;8.958;2022-09-28T12:13:57;2.00;;;1.30;;
3201;SDS011;34843;48.744;8.958;2022-09-28T12:16:27;5.90;;;1.60;;
3201;SDS011;34843;48.744;8.958;2022-09-28T12:19:18;1.60;;;1.20;;
3201;SDS011;34843;48.744;8.958;2022-09-28T12:22:20;7.23;;;1.63;;
3201;SDS011;34843;48.744;8.958;2022-09-28T12:25:03;1.57;;;1.23;;
3201;SDS011;34843;48.744;8.958;2022-09-28T12:27:39;2.87;;;1.47;;
3201;SDS011;34843;48.744;8.958;2022-09-28T12:35:13;4.10;;;1.47;;
3201;SDS011;34843;48.744;8.958;2022-09-28T12:43:23;2.10;;;1.00;;
3201;SDS011;34843;48.744;8.958;2022-09-28T12:51:27;6.53;;;1.37;;
3201;SDS011;34843;48.744;8.958;2022-09-28T12:59:35;1.37;;;0.87;;
3201;SDS011;34843;48.744;8.958;2022-09-28T13:05:49;1.10;;;0.90;;
3201;SDS011;34843;48.744;8.958;2022-09-28T13:11:36;2.97;;;1.20;;
3201;SDS011;34843;48.744;8.958;2022-09-28T13:14:36;3.83;;;1.47;;
3201;SDS011;34843;48.744;8.958;2022-09-28T13:17:16;1.20;;;1.00;;
3201;SDS011;34843;48.744;8.958;2022-09-28T13:25:29;1.60;;;1.03;;
3201;SDS011;34843;48.744;8.958;2022-09-28T13:28:00;3.73;;;1.90;;
3201;SDS011;34843;48.744;8.958;2022-09-28T13:30:27;2.40;;;1.30;;
3201;SDS011;34843;48.744;8.958;2022-09-28T13:32:56;2.00;;;1.00;;
3201;SDS011;34843;48.744;8.958;2022-09-28T13:35:24;6.70;;;1.27;;
3201;SDS011;34843;48.744;8.958;2022-09-28T13:43:49;4.50;;;1.37;;
3201;SDS011;34843;48.744;8.958;2022-09-28T13:49:02;1.20;;;0.90;;
3201;SDS011;34843;48.744;8.958;2022-09-28T13:51:44;2.23;;;1.00;;
3201;SDS011;34843;48.744;8.958;2022-09-28T14:00:15;2.03;;;1.00;;
3201;SDS011;34843;48.744;8.958;2022-09-28T14:02:50;4.37;;;1.30;;
3201;SDS011;34843;48.744;8.958;2022-09-28T14:14:04;14.57;;;1.53;;
3201;SDS011;34843;48.744;8.958;2022-09-28T14:16:30;4.17;;;1.30;;
3201;SDS011;34843;48.744;8.958;2022-09-28T14:27:39;6.00;;;1.00;;
3201;SDS011;34843;48.744;8.958;2022-09-28T14:33:03;3.23;;;0.90;;
3201;SDS011;34843;48.744;8.958;2022-09-28T14:35:47;2.70;;;1.10;;
3201;SDS011;34843;48.744;8.958;2022-09-28T14:38:18;4.73;;;0.90;;
3201;SDS011;34843;48.744;8.958;2022-09-28T14:41:06;1.60;;;1.50;;
3201;SDS011;34843;48.744;8.958;2022-09-28T14:52:34;2.00;;;1.37;;
3201;SDS011;34843;48.744;8.958;2022-09-28T14:54:26;3.43;;;1.00;;
3201;SDS011;34843;48.744;8.958;2022-09-28T14:59:40;2.10;;;1.10;;
3201;SDS011;34843;48.744;8.958;2022-09-28T15:05:14;2.60;;;0.90;;
3201;SDS011;34843;48.744;8.958;2022-09-28T15:07:44;1.67;;;1.10;;
3201;SDS011;34843;48.744;8.958;2022-09-28T15:10:31;4.20;;;1.00;;
3201;SDS011;34843;48.744;8.958;2022-09-28T15:13:03;6.73;;;1.20;;
3201;SDS011;34843;48.744;8.958;2022-09-28T15:15:40;2.50;;;1.10;;
3201;SDS011;34843;48.744;8.958;2022-09-28T15:18:12;2.60;;;1.00;;
3201;SDS011;34843;48.744;8.958;2022-09-28T15:20:51;2.77;;;1.50;;
3201;SDS011;34843;48.744;8.958;2022-09-28T15:23:37;0.80;;;0.80;;
3201;SDS011;34843;48.744;8.958;2022-09-28T15:26:05;2.80;;;1.00;;
3201;SDS011;34843;48.744;8.958;2022-09-28T15:28:42;1.63;;;1.00;;
3201;SDS011;34843;48.744;8.958;2022-09-28T15:31:14;1.27;;;1.10;;
3201;SDS011;34843;48.744;8.958;2022-09-28T15:33:42;3.23;;;1.13;;
3201;SDS011;34843;48.744;8.958;2022-09-28T15:36:27;2.17;;;0.90;;
3201;SDS011;34843;48.744;8.958;2022-09-28T15:38:57;2.33;;;1.20;;
3201;SDS011;34843;48.744;8.958;2022-09-28T15:41:26;4.87;;;1.47;;
3201;SDS011;34843;48.744;8.958;2022-09-28T15:46:27;2.00;;;1.27;;
3201;SDS011;34843;48.744;8.958;2022-09-28T15:48:54;2.17;;;1.30;;
3201;SDS011;34843;48.744;8.958;2022-09-28T15:51:23;2.20;;;1.00;;
3201;SDS011;34843;48.744;8.958;2022-09-28T15:53:53;2.30;;;0.97;;
3201;SDS011;34843;48.744;8.958;2022-09-28T15:56:22;4.80;;;1.40;;
3201;SDS011;34843;48.744;8.958;2022-09-28T16:01:37;6.40;;;1.33;;
3201;SDS011;34843;48.744;8.958;2022-09-28T16:09:57;3.03;;;1.27;;
3201;SDS011;34843;48.744;8.958;2022-09-28T16:12:25;1.00;;;1.00;;
3201;SDS011;34843;48.744;8.958;2022-09-28T16:14:56;1.63;;;1.23;;
3201;SDS011;34843;48.744;8.958;2022-09-28T16:17:31;6.00;;;1.10;;
3201;SDS011;34843;48.744;8.958;2022-09-28T16:20:03;7.10;;;3.17;;
3201;SDS011;34843;48.744;8.958;2022-09-28T16:22:42;8.90;;;4.37;;
3201;SDS011;34843;48.744;8.958;2022-09-28T16:25:14;4.87;;;2.30;;
3201;SDS011;34843;48.744;8.958;2022-09-28T16:27:47;5.33;;;3.87;;
3201;SDS011;34843;48.744;8.958;2022-09-28T16:35:25;1.73;;;1.10;;
3201;SDS011;34843;48.744;8.958;2022-09-28T16:38:10;3.00;;;1.17;;
3201;SDS011;34843;48.744;8.958;2022-09-28T16:40:44;5.73;;;1.80;;
3201;SDS011;34843;48.744;8.958;2022-09-28T16:43:33;3.17;;;1.27;;
3201;SDS011;34843;48.744;8.958;2022-09-28T16:46:09;1.30;;;1.20;;
3201;SDS011;34843;48.744;8.958;2022-09-28T16:48:37;2.17;;;1.53;;
3201;SDS011;34843;48.744;8.958;2022-09-28T16:51:15;2.60;;;1.63;;
3201;SDS011;34843;48.744;8.958;2022-09-28T16:53:42;2.87;;;1.17;;
3201;SDS011;34843;48.744;8.958;2022-09-28T16:56:27;5.90;;;2.80;;
3201;SDS011;34843;48.744;8.958;2022-09-28T16:58:53;5.00;;;1.97;;
3201;SDS011;34843;48.744;8.958;2022-09-28T17:01:20;1.50;;;1.40;;
3201;SDS011;34843;48.744;8.958;2022-09-28T17:03:46;4.60;;;1.40;;
3201;SDS011;34843;48.744;8.958;2022-09-28T17:06:14;2.00;;;1.33;;
3201;SDS011;34843;48.744;8.958;2022-09-28T17:08:41;2.20;;;1.30;;
3201;SDS011;34843;48.744;8.958;2022-09-28T17:11:08;3.33;;;1.57;;
3201;SDS011;34843;48.744;8.958;2022-09-28T17:13:38;1.77;;;1.40;;
3201;SDS011;34843;48.744;8.958;2022-09-28T17:16:06;4.17;;;1.97;;
3201;SDS011;34843;48.744;8.958;2022-09-28T17:18:36;3.40;;;1.70;;
3201;SDS011;34843;48.744;8.958;2022-09-28T17:21:04;6.17;;;3.30;;
3201;SDS011;34843;48.744;8.958;2022-09-28T17:23:33;12.00;;;5.30;;
3201;SDS011;34843;48.744;8.958;2022-09-28T17:25:59;10.77;;;8.07;;
3201;SDS011;34843;48.744;8.958;2022-09-28T17:28:26;18.53;;;12.00;;
3201;SDS011;34843;48.744;8.958;2022-09-28T17:30:55;7.10;;;4.90;;
3201;SDS011;34843;48.744;8.958;2022-09-28T17:33:21;6.87;;;3.90;;
3201;SDS011;34843;48.744;8.958;2022-09-28T17:35:46;9.97;;;4.23;;
3201;SDS011;34843;48.744;8.958;2022-09-28T17:38:13;3.37;;;3.07;;
3201;SDS011;34843;48.744;8.958;2022-09-28T17:40:40;4.53;;;2.23;;
3201;SDS011;34843;48.744;8.958;2022-09-28T17:43:07;5.30;;;2.57;;
3201;SDS011;34843;48.744;8.958;2022-09-28T17:45:33;3.13;;;2.83;;
3201;SDS011;34843;48.744;8.958;2022-09-28T17:48:03;9.77;;;2.43;;
3201;SDS011;34843;48.744;8.958;2022-09-28T17:50:36;4.73;;;2.60;;
3201;SDS011;34843;48.744;8.958;2022-09-28T17:53:01;4.83;;;2.13;;
3201;SDS011;34843;48.744;8.958;2022-09-28T17:55:30;5.47;;;2.93;;
3201;SDS011;34843;48.744;8.958;2022-09-28T17:57:58;3.13;;;2.60;;
3201;SDS011;34843;48.744;8.958;2022-09-28T18:00:25;6.63;;;2.53;;
3201;SDS011;34843;48.744;8.958;2022-09-28T18:02:54;10.07;;;5.77;;
3201;SDS011;34843;48.744;8.958;2022-09-28T18:05:21;6.27;;;4.37;;
3201;SDS011;34843;48.744;8.958;2022-09-28T18:07:49;3.80;;;3.50;;
3201;SDS011;34843;48.744;8.958;2022-09-28T18:10:16;5.10;;;3.77;;
3201;SDS011;34843;48.744;8.958;2022-09-28T18:12:45;9.77;;;3.90;;